createdAt,value
2023-02-24T00:00:17.070Z,16.6
2023-02-24T00:10:17.141Z,16.6
2023-02-24T00:20:18.963Z,16.8
2023-02-24T00:30:18.588Z,16.6
2023-02-24T00:40:18.720Z,16.6
2023-02-24T00:50:18.803Z,16.6
2023-02-24T01:00:19.386Z,16.9
2023-02-24T01:10:19.092Z,16.4
2023-02-24T01:20:18.646Z,16.5
2023-02-24T01:30:19.316Z,16.5
2023-02-24T01:40:20.545Z,16.4
2023-02-24T01:50:21.610Z,16.4
2023-02-24T02:00:21.883Z,16.4
2023-02-24T02:10:22.327Z,16.5
2023-02-24T02:20:22.512Z,16.7
2023-02-24T02:30:22.308Z,16.4
2023-02-24T02:40:23.372Z,16.3
2023-02-24T02:50:23.040Z,16.3
2023-02-24T03:10:06.734Z,16.4
2023-02-24T03:20:06.557Z,16.4
2023-02-24T03:30:06.612Z,16.3
2023-02-24T03:40:06.404Z,16.5
2023-02-24T03:50:06.465Z,16.5
2023-02-24T04:00:08.095Z,16.6
2023-02-24T04:10:10.311Z,16.4
2023-02-24T04:20:12.020Z,16.9
2023-02-24T04:30:13.890Z,16.5
2023-02-24T04:40:15.352Z,16.4
2023-02-24T04:50:17.205Z,16.5
2023-02-24T05:00:17.754Z,16.4
2023-02-24T05:10:18.386Z,16.7
2023-02-24T05:20:19.383Z,16.8
2023-02-24T05:30:18.989Z,16.8
2023-02-24T05:40:19.807Z,16.9
2023-02-24T05:50:20.055Z,16.4
2023-02-24T06:00:19.976Z,16.5
2023-02-24T06:10:21.083Z,16.5
2023-02-24T06:20:20.978Z,16.8
2023-02-24T06:30:22.070Z,16.9
2023-02-24T06:40:22.146Z,16.4
2023-02-24T06:50:22.540Z,16.5
2023-02-24T07:00:23.035Z,16.6
2023-02-24T07:10:23.343Z,16.6
2023-02-24T07:20:23.831Z,16.6
2023-02-24T07:30:24.174Z,16.8
2023-02-24T07:40:25.006Z,16.7
2023-02-24T07:50:28.565Z,16.8
2023-02-24T08:00:28.993Z,16.8
2023-02-24T08:10:30.198Z,16.7
2023-02-24T08:20:31.373Z,16.9
2023-02-24T08:30:34.219Z,16.8
2023-02-24T08:40:36.900Z,16.9
2023-02-24T08:50:41.161Z,16.8
2023-02-24T09:10:14.166Z,17.4
2023-02-24T09:20:20.228Z,17.5
2023-02-24T09:30:28.283Z,16.9
2023-02-24T09:40:42.300Z,17.3
2023-02-24T09:51:02.986Z,17.4
2023-02-24T10:01:12.565Z,17.4
2023-02-24T10:11:27.581Z,17.5
2023-02-24T10:21:39.392Z,17.6
2023-02-24T10:31:50.932Z,18.9
2023-02-24T10:42:01.986Z,18.3
2023-02-24T10:52:19.203Z,18.4
2023-02-24T11:02:37.065Z,18.1
2023-02-24T11:13:00.961Z,18
2023-02-24T11:23:10.347Z,18.5
2023-02-24T11:33:21.184Z,19.3
2023-02-24T11:43:31.430Z,18.8
2023-02-24T11:53:41.065Z,18.9
2023-02-24T12:03:57.043Z,18.4
2023-02-24T12:14:15.489Z,18.8
2023-02-24T12:24:31.589Z,18.8
2023-02-24T12:34:47.820Z,20.3
2023-02-24T12:44:55.746Z,18.9
2023-02-24T12:54:58.858Z,18.8
2023-02-24T13:05:02.767Z,19.3
2023-02-24T13:15:07.022Z,18.8
2023-02-24T13:25:06.911Z,18.5
2023-02-24T13:35:06.120Z,18.8
2023-02-24T13:45:05.400Z,18.6
2023-02-24T13:55:04.738Z,18.6
2023-02-24T14:05:04.336Z,18.4
2023-02-24T14:15:05.121Z,18.5
2023-02-24T14:25:07.017Z,18.2
2023-02-24T14:35:08.698Z,18.3
2023-02-24T14:45:10.465Z,18.4
2023-02-24T14:55:12.101Z,18.3
2023-02-24T15:10:08.995Z,18.6
2023-02-24T15:20:10.792Z,18.1
2023-02-24T15:30:12.581Z,18.1
2023-02-24T15:40:12.511Z,17.9
2023-02-24T15:50:13.677Z,18.3
2023-02-24T16:00:13.451Z,17.8
2023-02-24T16:10:15.807Z,18
2023-02-24T16:20:18.134Z,17.8
2023-02-24T16:30:22.081Z,17.6
2023-02-24T16:40:20.996Z,17.9
2023-02-24T16:50:21.117Z,17.6
2023-02-24T17:00:24.200Z,17.7
2023-02-24T17:10:25.145Z,17.6
2023-02-24T17:20:25.245Z,17.4
2023-02-24T17:30:26.358Z,17.4
2023-02-24T17:40:26.562Z,17.4
2023-02-24T17:50:26.045Z,17.6
2023-02-24T18:00:26.720Z,17.3
2023-02-24T18:10:27.105Z,17.4
2023-02-24T18:20:27.437Z,17.3
2023-02-24T18:30:28.504Z,17.4
2023-02-24T18:40:28.396Z,17.3
2023-02-24T18:50:28.469Z,17.3
2023-02-24T19:00:28.620Z,17.3
2023-02-24T19:10:28.366Z,17.3
2023-02-24T19:20:28.434Z,17.5
2023-02-24T19:30:28.400Z,17.2
2023-02-24T19:40:27.881Z,17.1
2023-02-24T19:50:27.839Z,17.1
2023-02-24T20:00:27.863Z,17.1
2023-02-24T20:10:28.839Z,17.3
2023-02-24T20:20:28.704Z,17.1
2023-02-24T20:30:28.567Z,17.1
2023-02-24T20:40:29.244Z,17.3
2023-02-24T20:50:29.644Z,17.1
2023-02-24T21:10:08.189Z,16.9
2023-02-24T21:20:08.486Z,16.9
2023-02-24T21:30:08.779Z,16.8
2023-02-24T21:40:09.407Z,16.8
2023-02-24T21:50:09.610Z,16.8
2023-02-24T22:00:10.779Z,16.7
2023-02-24T22:10:10.957Z,16.8
2023-02-24T22:20:12.532Z,16.7
2023-02-24T22:30:14.041Z,16.7
2023-02-24T22:40:16.316Z,16.9
2023-02-24T22:50:17.429Z,16.6
2023-02-24T23:00:18.376Z,16.6
2023-02-24T23:10:19.709Z,16.7
2023-02-24T23:20:20.091Z,16.6
2023-02-24T23:30:20.276Z,16.6
2023-02-24T23:40:20.991Z,16.8
2023-02-24T23:50:22.503Z,16.9
